createdAt,value
2023-03-31T00:02:13.710Z,9.27
2023-03-31T00:04:46.192Z,9.31
2023-03-31T00:07:16.375Z,9.34
2023-03-31T00:09:46.193Z,9.31
2023-03-31T00:12:16.584Z,9.29
2023-03-31T00:14:43.812Z,9.24
2023-03-31T00:17:11.356Z,9.21
2023-03-31T00:19:40.045Z,9.20
2023-03-31T00:22:06.456Z,9.32
2023-03-31T00:24:33.401Z,9.18
2023-03-31T00:27:01.156Z,9.27
2023-03-31T00:29:28.189Z,9.19
2023-03-31T00:31:55.461Z,9.27
2023-03-31T00:34:22.052Z,9.12
2023-03-31T00:36:48.455Z,9.22
2023-03-31T00:39:18.187Z,9.18
2023-03-31T00:41:44.911Z,9.31
2023-03-31T00:44:24.186Z,9.40
2023-03-31T00:46:53.444Z,9.29
2023-03-31T00:49:26.144Z,9.07
2023-03-31T00:51:57.035Z,9.01
2023-03-31T00:54:26.375Z,9.12
2023-03-31T00:56:58.442Z,9.16
2023-03-31T00:59:30.440Z,9.07
2023-03-31T01:02:02.633Z,9.09
2023-03-31T01:04:33.415Z,9.18
2023-03-31T01:07:35.851Z,9.18
2023-03-31T01:10:04.993Z,9.26
2023-03-31T01:12:34.250Z,9.17
2023-03-31T01:15:03.228Z,9.25
2023-03-31T01:17:30.797Z,9.18
2023-03-31T01:20:13.650Z,9.19
2023-03-31T01:22:50.192Z,9.24
2023-03-31T01:25:42.724Z,9.05
2023-03-31T01:28:21.820Z,8.82
2023-03-31T01:31:20.529Z,8.97
2023-03-31T01:34:05.602Z,8.90
2023-03-31T01:36:50.634Z,9.01
2023-03-31T01:39:41.898Z,8.99
2023-03-31T01:42:21.975Z,8.98
2023-03-31T01:44:51.178Z,9.10
2023-03-31T01:47:46.693Z,8.94
2023-03-31T01:50:35.467Z,9.14
2023-03-31T01:53:17.356Z,8.93
2023-03-31T01:55:49.829Z,8.91
2023-03-31T01:58:23.994Z,9.02
2023-03-31T02:01:01.854Z,8.93
2023-03-31T02:03:36.369Z,8.88
2023-03-31T02:06:26.765Z,8.90
2023-03-31T02:09:02.417Z,8.93
2023-03-31T02:11:31.925Z,8.98
2023-03-31T02:14:02.798Z,8.93
2023-03-31T02:16:33.478Z,8.90
2023-03-31T02:19:03.958Z,8.84
2023-03-31T02:21:33.298Z,8.84
2023-03-31T02:26:45.106Z,8.67
2023-03-31T02:29:11.511Z,8.66
2023-03-31T02:32:21.878Z,8.67
2023-03-31T02:34:48.768Z,8.65
2023-03-31T02:37:15.583Z,8.79
2023-03-31T02:39:45.617Z,8.82
2023-03-31T02:42:12.470Z,8.73
2023-03-31T02:44:40.130Z,8.72
2023-03-31T02:47:10.079Z,8.75
2023-03-31T02:49:39.293Z,8.82
2023-03-31T02:52:34.147Z,8.84
2023-03-31T02:55:22.182Z,8.68
2023-03-31T02:58:20.667Z,8.73
2023-03-31T03:00:53.042Z,8.81
2023-03-31T03:03:29.077Z,8.58
2023-03-31T03:06:20.561Z,8.61
2023-03-31T03:09:17.108Z,8.65
2023-03-31T03:11:51.635Z,8.68
2023-03-31T03:14:48.244Z,8.73
2023-03-31T03:17:23.833Z,8.71
2023-03-31T03:20:00.622Z,8.72
2023-03-31T03:22:27.785Z,8.70
2023-03-31T03:24:54.327Z,8.62
2023-03-31T03:27:22.774Z,8.79
2023-03-31T03:29:49.241Z,8.74
2023-03-31T03:32:15.953Z,8.70
2023-03-31T03:34:42.790Z,8.73
2023-03-31T03:37:09.508Z,8.79
2023-03-31T03:39:35.943Z,8.85
2023-03-31T03:42:02.617Z,8.90
2023-03-31T03:44:29.433Z,8.90
2023-03-31T03:46:55.846Z,8.90
2023-03-31T03:49:22.451Z,8.95
2023-03-31T03:51:48.888Z,8.95
2023-03-31T03:54:15.994Z,8.92
2023-03-31T03:56:42.422Z,8.95
2023-03-31T03:59:08.920Z,8.88
2023-03-31T04:01:36.047Z,8.91
2023-03-31T04:04:03.141Z,8.88
2023-03-31T04:06:29.610Z,8.80
2023-03-31T04:08:56.030Z,8.86
2023-03-31T04:11:22.552Z,8.86
2023-03-31T04:13:49.029Z,8.84
2023-03-31T04:16:16.676Z,8.79
2023-03-31T04:18:48.653Z,8.83
2023-03-31T04:21:22.710Z,8.86
2023-03-31T04:23:58.560Z,8.82
2023-03-31T04:26:31.448Z,8.81
2023-03-31T04:29:01.252Z,8.80
2023-03-31T04:31:30.642Z,8.79
2023-03-31T04:34:02.284Z,8.81
2023-03-31T04:36:31.233Z,8.80
2023-03-31T04:38:57.671Z,8.77
2023-03-31T04:41:25.352Z,8.83
2023-03-31T04:43:51.853Z,8.77
2023-03-31T04:46:18.317Z,8.76
2023-03-31T04:48:45.265Z,8.66
2023-03-31T04:51:15.178Z,8.62
2023-03-31T04:53:41.571Z,8.61
2023-03-31T04:56:08.298Z,8.63
2023-03-31T04:58:35.245Z,8.59
2023-03-31T05:01:01.867Z,8.60
2023-03-31T05:03:28.442Z,8.54
2023-03-31T05:05:55.119Z,8.56
2023-03-31T05:08:21.535Z,8.56
2023-03-31T05:10:47.961Z,8.55
2023-03-31T05:13:14.471Z,8.53
2023-03-31T05:15:41.439Z,8.51
2023-03-31T05:18:08.210Z,8.53
2023-03-31T05:20:34.769Z,8.53
2023-03-31T05:23:01.866Z,8.56
2023-03-31T05:25:32.789Z,8.53
2023-03-31T05:28:00.473Z,8.55
2023-03-31T05:30:27.582Z,8.60
2023-03-31T05:32:54.374Z,8.56
2023-03-31T05:35:20.794Z,8.58
2023-03-31T05:37:47.243Z,8.56
2023-03-31T05:40:13.698Z,8.63
2023-03-31T05:42:41.700Z,8.61
2023-03-31T05:45:09.454Z,8.67
2023-03-31T05:47:36.702Z,8.72
2023-03-31T05:50:07.540Z,8.69
2023-03-31T05:52:34.266Z,8.71
2023-03-31T05:55:00.776Z,8.77
2023-03-31T05:57:27.298Z,8.85
2023-03-31T05:59:53.765Z,8.88
2023-03-31T06:02:20.211Z,8.84
2023-03-31T06:04:46.592Z,8.92
2023-03-31T06:07:14.962Z,8.99
2023-03-31T06:09:41.492Z,8.95
2023-03-31T06:12:08.509Z,9.00
2023-03-31T06:14:34.929Z,8.94
2023-03-31T06:17:01.583Z,8.95
2023-03-31T06:19:27.988Z,8.90
2023-03-31T06:21:54.461Z,8.93
2023-03-31T06:24:21.789Z,9.01
2023-03-31T06:26:48.270Z,9.12
2023-03-31T06:29:14.735Z,9.16
2023-03-31T06:31:41.292Z,9.21
2023-03-31T06:34:07.899Z,9.25
2023-03-31T06:36:34.389Z,9.14
2023-03-31T06:39:01.597Z,9.17
2023-03-31T06:41:28.236Z,9.28
2023-03-31T06:43:54.993Z,9.29
2023-03-31T06:46:21.527Z,9.37
2023-03-31T06:48:48.034Z,9.35
2023-03-31T06:51:15.013Z,9.41
2023-03-31T06:53:41.526Z,9.27
2023-03-31T06:56:08.282Z,9.40
2023-03-31T06:58:35.182Z,9.56
2023-03-31T07:01:06.492Z,9.47
2023-03-31T07:03:33.285Z,9.61
2023-03-31T07:06:00.519Z,9.58
2023-03-31T07:08:27.014Z,9.69
2023-03-31T07:10:57.692Z,9.82
2023-03-31T07:13:25.470Z,9.94
2023-03-31T07:15:53.241Z,10.06
2023-03-31T07:18:19.869Z,10.12
2023-03-31T07:20:50.564Z,10.20
2023-03-31T07:23:17.750Z,10.21
2023-03-31T07:25:45.268Z,10.33
2023-03-31T07:28:12.116Z,10.37
2023-03-31T07:30:40.109Z,10.48
2023-03-31T07:33:07.436Z,10.43
2023-03-31T07:35:34.271Z,10.53
2023-03-31T07:38:00.831Z,10.60
2023-03-31T07:40:29.423Z,10.62
2023-03-31T07:42:56.309Z,10.71
2023-03-31T07:45:25.700Z,10.73
2023-03-31T07:47:52.981Z,10.70
2023-03-31T07:50:20.312Z,10.75
2023-03-31T07:52:47.425Z,10.73
2023-03-31T07:55:14.429Z,10.78
2023-03-31T07:57:41.416Z,10.84
2023-03-31T08:00:12.311Z,10.74
2023-03-31T08:02:42.847Z,10.70
2023-03-31T08:05:11.964Z,10.78
2023-03-31T08:07:41.725Z,10.80
2023-03-31T08:10:11.600Z,10.94
2023-03-31T08:12:38.452Z,11.03
2023-03-31T08:15:05.803Z,11.02
2023-03-31T08:17:32.325Z,11.05
2023-03-31T08:20:02.780Z,11.04
2023-03-31T08:22:31.670Z,11.14
2023-03-31T08:24:58.130Z,11.17
2023-03-31T08:27:25.998Z,11.13
2023-03-31T08:29:52.424Z,11.20
2023-03-31T08:32:18.865Z,11.21
2023-03-31T08:34:46.227Z,11.26
2023-03-31T08:37:12.661Z,11.26
2023-03-31T08:39:39.103Z,11.26
2023-03-31T08:42:16.812Z,11.40
2023-03-31T08:45:02.166Z,11.49
2023-03-31T08:47:32.427Z,11.69
2023-03-31T08:50:03.108Z,11.74
2023-03-31T08:52:34.584Z,11.80
2023-03-31T08:55:05.097Z,11.82
2023-03-31T08:57:49.278Z,11.95
2023-03-31T09:00:17.895Z,11.92
2023-03-31T09:02:53.511Z,11.95
2023-03-31T09:05:28.831Z,12.11
2023-03-31T09:08:13.243Z,12.14
2023-03-31T09:10:50.523Z,12.29
2023-03-31T09:13:17.010Z,12.34
2023-03-31T09:15:47.486Z,12.46
2023-03-31T09:18:27.844Z,12.37
2023-03-31T09:21:02.281Z,12.48
2023-03-31T09:23:48.273Z,12.51
2023-03-31T09:26:34.165Z,12.40
2023-03-31T09:29:03.928Z,12.56
2023-03-31T09:31:32.087Z,12.56
2023-03-31T09:34:02.029Z,12.58
2023-03-31T09:36:28.851Z,12.63
2023-03-31T09:38:55.569Z,12.67
2023-03-31T09:41:22.182Z,12.72
2023-03-31T09:43:50.019Z,12.72
2023-03-31T09:46:28.247Z,12.79
2023-03-31T09:49:17.844Z,12.89
2023-03-31T09:51:48.970Z,12.96
2023-03-31T09:54:45.117Z,12.87
2023-03-31T09:57:36.103Z,12.85
2023-03-31T10:00:23.697Z,12.92
2023-03-31T10:02:55.576Z,12.89
2023-03-31T10:05:43.315Z,12.89
2023-03-31T10:08:26.287Z,12.88
2023-03-31T10:11:03.026Z,12.90
2023-03-31T10:13:47.076Z,12.81
2023-03-31T10:16:49.793Z,12.81
2023-03-31T10:19:33.004Z,12.70
2023-03-31T10:22:18.384Z,12.76
2023-03-31T10:24:46.145Z,12.67
2023-03-31T10:27:25.536Z,12.79
2023-03-31T10:29:57.501Z,12.70
2023-03-31T10:32:29.163Z,12.70
2023-03-31T10:34:57.878Z,12.66
2023-03-31T10:37:27.149Z,12.62
2023-03-31T10:40:13.971Z,12.59
2023-03-31T10:42:40.634Z,12.64
2023-03-31T10:45:36.419Z,12.63
2023-03-31T10:48:04.479Z,12.59
2023-03-31T10:50:36.451Z,12.63
2023-03-31T10:53:12.984Z,12.49
2023-03-31T10:55:52.939Z,12.54
2023-03-31T10:58:58.325Z,12.60
2023-03-31T11:02:01.077Z,12.52
2023-03-31T11:05:01.890Z,12.19
2023-03-31T11:07:40.312Z,12.26
2023-03-31T11:10:28.187Z,12.26
2023-03-31T11:13:14.017Z,12.23
2023-03-31T11:16:09.148Z,12.13
2023-03-31T11:19:07.119Z,12.05
2023-03-31T11:21:51.896Z,12.00
2023-03-31T11:25:01.315Z,11.97
2023-03-31T11:27:42.379Z,11.93
2023-03-31T11:30:24.312Z,11.93
2023-03-31T11:33:03.091Z,11.98
2023-03-31T11:35:43.754Z,11.95
2023-03-31T11:38:12.944Z,11.95
2023-03-31T11:41:03.855Z,11.98
2023-03-31T11:43:39.994Z,12.02
2023-03-31T11:46:27.805Z,11.98
2023-03-31T11:49:06.505Z,12.06
2023-03-31T11:51:39.118Z,12.00
2023-03-31T11:54:12.125Z,12.04
2023-03-31T11:56:41.260Z,12.09
2023-03-31T11:59:14.789Z,12.10
2023-03-31T12:01:48.417Z,12.09
2023-03-31T12:04:23.997Z,12.26
2023-03-31T12:06:55.488Z,12.33
2023-03-31T12:09:39.182Z,12.40
2023-03-31T12:12:14.278Z,12.40
2023-03-31T12:14:47.670Z,12.47
2023-03-31T12:17:19.091Z,12.50
2023-03-31T12:19:51.548Z,12.51
2023-03-31T12:22:20.972Z,12.60
2023-03-31T12:24:47.601Z,12.64
2023-03-31T12:27:32.719Z,12.65
2023-03-31T12:30:27.568Z,12.69
2023-03-31T12:32:59.149Z,12.64
2023-03-31T12:35:53.287Z,12.64
2023-03-31T12:38:47.355Z,12.70
2023-03-31T12:41:24.464Z,12.73
2023-03-31T12:43:56.749Z,12.57
2023-03-31T12:46:35.281Z,12.43
2023-03-31T12:49:20.412Z,12.21
2023-03-31T12:52:28.792Z,11.56
2023-03-31T12:55:09.588Z,11.57
2023-03-31T12:57:36.464Z,11.58
2023-03-31T13:00:07.841Z,11.57
2023-03-31T13:02:34.386Z,11.38
2023-03-31T13:05:40.843Z,11.44
2023-03-31T13:08:08.604Z,11.23
2023-03-31T13:10:59.946Z,11.17
2023-03-31T13:13:26.849Z,11.31
2023-03-31T13:15:59.740Z,11.43
2023-03-31T13:18:27.930Z,11.44
2023-03-31T13:21:05.547Z,11.43
2023-03-31T13:23:36.028Z,11.45
2023-03-31T13:26:03.242Z,11.51
2023-03-31T13:28:42.296Z,11.53
2023-03-31T13:31:11.110Z,11.60
2023-03-31T13:33:42.717Z,11.53
2023-03-31T13:36:38.225Z,11.57
2023-03-31T13:39:28.006Z,11.68
2023-03-31T13:42:41.465Z,11.77
2023-03-31T13:45:26.615Z,11.66
2023-03-31T13:48:22.181Z,11.71
2023-03-31T13:51:13.522Z,11.79
2023-03-31T13:54:12.243Z,11.72
2023-03-31T13:57:05.730Z,11.77
2023-03-31T13:59:32.163Z,11.85
2023-03-31T14:02:29.675Z,11.81
2023-03-31T14:05:05.690Z,11.82
2023-03-31T14:07:37.001Z,11.75
2023-03-31T14:10:04.405Z,11.67
2023-03-31T14:12:37.169Z,11.54
2023-03-31T14:15:06.930Z,11.57
2023-03-31T14:17:37.557Z,11.62
2023-03-31T14:20:12.786Z,11.57
2023-03-31T14:23:14.292Z,10.84
2023-03-31T14:25:58.003Z,10.67
2023-03-31T14:28:46.603Z,10.71
2023-03-31T14:31:23.420Z,10.76
2023-03-31T14:34:19.354Z,10.71
2023-03-31T14:36:57.670Z,10.52
2023-03-31T14:39:28.757Z,10.37
2023-03-31T14:41:59.381Z,10.40
2023-03-31T14:44:26.823Z,10.43
2023-03-31T14:46:57.315Z,10.54
2023-03-31T14:49:48.442Z,10.49
2023-03-31T14:52:20.947Z,10.30
2023-03-31T14:54:47.977Z,10.41
2023-03-31T14:57:21.551Z,10.18
2023-03-31T14:59:51.602Z,10.30
2023-03-31T15:02:24.675Z,10.46
2023-03-31T15:04:51.595Z,10.07
2023-03-31T15:07:18.142Z,10.00
2023-03-31T15:09:49.895Z,9.73
2023-03-31T15:12:18.526Z,9.93
2023-03-31T15:14:48.055Z,9.77
2023-03-31T15:17:35.233Z,9.82
2023-03-31T15:20:20.514Z,9.88
2023-03-31T15:22:47.081Z,9.67
2023-03-31T15:25:18.438Z,9.65
2023-03-31T15:27:52.795Z,9.79
2023-03-31T15:30:23.450Z,9.69
2023-03-31T15:32:50.681Z,9.59
2023-03-31T15:35:24.849Z,9.65
2023-03-31T15:37:54.124Z,9.55
2023-03-31T15:40:32.621Z,9.70
2023-03-31T15:45:47.721Z,9.90
2023-03-31T15:48:21.054Z,9.90
2023-03-31T15:50:48.303Z,9.95
2023-03-31T15:53:31.801Z,9.94
2023-03-31T15:56:00.042Z,10.02
2023-03-31T15:58:47.018Z,9.96
2023-03-31T16:01:17.509Z,10.03
2023-03-31T16:03:45.624Z,9.95
2023-03-31T16:06:18.294Z,10.02
2023-03-31T16:08:52.968Z,10.05
2023-03-31T16:11:35.052Z,10.02
2023-03-31T16:14:09.462Z,9.97
2023-03-31T16:16:36.978Z,9.69
2023-03-31T16:19:09.933Z,9.96
2023-03-31T16:21:47.499Z,10.04
2023-03-31T16:24:15.512Z,10.15
2023-03-31T16:26:42.420Z,10.09
2023-03-31T16:29:09.024Z,10.01
2023-03-31T16:31:39.238Z,10.01
2023-03-31T16:34:08.870Z,10.06
2023-03-31T16:36:35.629Z,10.01
2023-03-31T16:39:05.000Z,10.06
2023-03-31T16:41:37.624Z,9.97
2023-03-31T16:44:04.440Z,9.98
2023-03-31T16:46:31.106Z,9.87
2023-03-31T16:48:57.717Z,9.98
2023-03-31T16:51:24.636Z,10.00
2023-03-31T16:53:51.483Z,9.93
2023-03-31T16:56:17.990Z,9.90
2023-03-31T16:58:45.057Z,9.95
2023-03-31T17:01:12.062Z,9.93
2023-03-31T17:03:41.577Z,9.76
2023-03-31T17:06:12.805Z,9.77
2023-03-31T17:08:39.709Z,9.67
2023-03-31T17:11:11.633Z,9.64
2023-03-31T17:13:38.499Z,9.60
2023-03-31T17:16:18.449Z,9.73
2023-03-31T17:18:48.803Z,9.67
2023-03-31T17:21:18.312Z,9.76
2023-03-31T17:23:46.157Z,9.80
2023-03-31T17:26:13.419Z,9.76
2023-03-31T17:28:40.845Z,9.75
2023-03-31T17:31:18.244Z,9.81
2023-03-31T17:33:45.035Z,9.79
2023-03-31T17:36:12.219Z,9.78
2023-03-31T17:38:39.796Z,9.76
2023-03-31T17:41:09.998Z,9.78
2023-03-31T17:43:37.892Z,9.80
2023-03-31T17:46:07.449Z,9.86
2023-03-31T17:48:35.234Z,9.83
2023-03-31T17:51:15.601Z,9.80
2023-03-31T17:53:45.028Z,9.77
2023-03-31T17:56:12.786Z,9.73
2023-03-31T17:58:39.636Z,9.75
2023-03-31T18:01:07.595Z,9.76
2023-03-31T18:03:35.089Z,9.74
2023-03-31T18:06:06.617Z,9.74
2023-03-31T18:08:34.660Z,9.66
2023-03-31T18:11:02.835Z,9.63
2023-03-31T18:13:29.543Z,9.67
2023-03-31T18:15:56.349Z,9.72
2023-03-31T18:18:23.632Z,9.71
2023-03-31T18:20:50.212Z,9.72
2023-03-31T18:23:16.669Z,9.77
2023-03-31T18:25:45.193Z,9.72
2023-03-31T18:28:18.057Z,9.65
2023-03-31T18:30:44.854Z,9.61
2023-03-31T18:33:11.713Z,9.51
2023-03-31T18:35:38.953Z,9.65
2023-03-31T18:38:05.989Z,9.65
2023-03-31T18:40:32.711Z,9.57
2023-03-31T18:42:59.265Z,9.49
2023-03-31T18:45:28.001Z,9.54
2023-03-31T18:47:54.838Z,9.53
2023-03-31T18:50:23.188Z,9.54
2023-03-31T18:52:54.187Z,9.47
2023-03-31T18:55:20.919Z,9.46
2023-03-31T18:57:47.411Z,9.48
2023-03-31T19:00:14.799Z,9.49
2023-03-31T19:02:41.971Z,9.47
2023-03-31T19:05:09.041Z,9.42
2023-03-31T19:07:36.276Z,9.39
2023-03-31T19:10:02.843Z,9.40
2023-03-31T19:12:29.384Z,9.40
2023-03-31T19:14:55.989Z,9.44
2023-03-31T19:17:22.475Z,9.45
2023-03-31T19:19:49.560Z,9.39
2023-03-31T19:22:16.816Z,9.38
2023-03-31T19:24:44.857Z,9.35
2023-03-31T19:27:12.314Z,9.35
2023-03-31T19:29:38.966Z,9.42
2023-03-31T19:32:06.252Z,9.43
2023-03-31T19:34:33.860Z,9.46
2023-03-31T19:37:01.907Z,9.48
2023-03-31T19:39:28.627Z,9.50
2023-03-31T19:41:55.204Z,9.45
2023-03-31T19:44:21.601Z,9.42
2023-03-31T19:46:48.137Z,9.34
2023-03-31T19:49:15.357Z,9.34
2023-03-31T19:51:42.139Z,9.35
2023-03-31T19:54:10.748Z,9.30
2023-03-31T19:56:38.010Z,9.32
2023-03-31T19:59:05.374Z,9.27
2023-03-31T20:01:32.872Z,9.27
2023-03-31T20:03:59.713Z,9.27
2023-03-31T20:06:28.425Z,9.26
2023-03-31T20:09:00.442Z,9.09
2023-03-31T20:11:28.715Z,9.04
2023-03-31T20:13:55.840Z,9.03
2023-03-31T20:16:25.099Z,9.05
2023-03-31T20:18:57.439Z,9.06
2023-03-31T20:21:27.221Z,9.09
2023-03-31T20:23:54.611Z,9.11
2023-03-31T20:26:25.025Z,9.14
2023-03-31T20:28:52.212Z,9.09
2023-03-31T20:31:21.574Z,9.07
2023-03-31T20:33:48.995Z,9.04
2023-03-31T20:36:18.510Z,8.98
2023-03-31T20:38:47.904Z,8.98
2023-03-31T20:41:14.724Z,8.99
2023-03-31T20:43:41.384Z,9.01
2023-03-31T20:46:09.071Z,8.96
2023-03-31T20:48:38.398Z,8.84
2023-03-31T20:51:07.173Z,8.79
2023-03-31T20:53:43.535Z,8.75
2023-03-31T20:56:21.872Z,8.73
2023-03-31T20:58:49.742Z,8.91
2023-03-31T21:01:18.154Z,8.85
2023-03-31T21:03:44.857Z,8.92
2023-03-31T21:06:14.136Z,8.83
2023-03-31T21:08:43.013Z,8.70
2023-03-31T21:11:09.905Z,8.71
2023-03-31T21:13:37.011Z,8.80
2023-03-31T21:16:04.756Z,8.84
2023-03-31T21:18:33.309Z,8.77
2023-03-31T21:21:02.856Z,8.82
2023-03-31T21:23:30.809Z,8.70
2023-03-31T21:26:00.173Z,8.72
2023-03-31T21:28:32.464Z,8.74
2023-03-31T21:31:14.595Z,8.70
2023-03-31T21:33:43.219Z,8.70
2023-03-31T21:36:13.199Z,8.74
2023-03-31T21:38:40.484Z,8.72
2023-03-31T21:41:09.589Z,8.73
2023-03-31T21:43:36.632Z,8.75
2023-03-31T21:46:03.624Z,8.75
2023-03-31T21:48:30.084Z,8.79
2023-03-31T21:51:00.251Z,8.83
2023-03-31T21:53:28.685Z,8.85
2023-03-31T21:55:56.411Z,8.82
2023-03-31T21:58:26.493Z,8.84
2023-03-31T22:00:56.089Z,8.91
2023-03-31T22:03:27.434Z,8.88
2023-03-31T22:06:07.103Z,8.82
2023-03-31T22:08:36.409Z,8.82
2023-03-31T22:11:04.279Z,8.90
2023-03-31T22:13:30.953Z,8.84
2023-03-31T22:15:58.669Z,8.81
2023-03-31T22:18:25.414Z,8.86
2023-03-31T22:20:52.370Z,8.87
2023-03-31T22:23:20.744Z,8.91
2023-03-31T22:25:47.856Z,9.02
2023-03-31T22:28:16.218Z,8.97
2023-03-31T22:30:43.954Z,8.94
2023-03-31T22:33:10.394Z,8.80
2023-03-31T22:35:37.024Z,8.77
2023-03-31T22:38:04.046Z,8.82
2023-03-31T22:40:32.153Z,8.91
2023-03-31T22:42:59.684Z,8.90
2023-03-31T22:45:26.058Z,8.87
2023-03-31T22:47:52.543Z,8.82
2023-03-31T22:50:19.073Z,8.89
2023-03-31T22:52:45.938Z,8.87
2023-03-31T22:55:12.374Z,8.78
2023-03-31T22:57:39.264Z,8.87
2023-03-31T23:00:06.519Z,8.86
2023-03-31T23:02:33.186Z,8.86
2023-03-31T23:04:59.644Z,8.85
2023-03-31T23:07:26.108Z,8.78
2023-03-31T23:09:52.554Z,8.76
2023-03-31T23:12:18.997Z,8.74
2023-03-31T23:14:45.376Z,8.71
2023-03-31T23:17:12.151Z,8.69
2023-03-31T23:19:38.713Z,8.69
2023-03-31T23:22:06.021Z,8.70
2023-03-31T23:24:32.855Z,8.68
2023-03-31T23:26:59.366Z,8.84
2023-03-31T23:29:25.976Z,8.78
2023-03-31T23:31:52.386Z,8.78
2023-03-31T23:34:18.902Z,8.72
2023-03-31T23:36:45.351Z,8.75
2023-03-31T23:39:11.736Z,8.67
2023-03-31T23:41:38.259Z,8.71
2023-03-31T23:44:06.168Z,8.80
2023-03-31T23:46:33.449Z,8.88
2023-03-31T23:49:02.508Z,8.93
2023-03-31T23:51:28.930Z,8.90
2023-03-31T23:53:55.572Z,8.93
2023-03-31T23:56:22.313Z,8.91
2023-03-31T23:58:48.901Z,8.83
